Time;durP1;ratioP1;P1;durP2;ratioP2;P2;SDS_P1;SDS_P2;PMS_P1;PMS_P2;Temp;Humidity;BMP_temperature;BMP_pressure;BME280_temperature;BME280_humidity;BME280_pressure;Samples;Min_cycle;Max_cycle;Signal;HPM_P1;HPM_P2
2022/08/12 00:44:21;;;;;;;6.53;4.85;;;;;;;21.07;86.36;99751.16;1790198;80;21316;-74
2022/08/12 00:46:57;;;;;;;5.10;4.70;;;;;;;21.05;86.48;99750.42;1818522;78;21041;-74
2022/08/12 00:49:24;;;;;;;8.43;5.00;;;;;;;21.02;86.55;99756.00;1790025;80;21128;-75
2022/08/12 00:52:08;;;;;;;7.28;4.67;;;;;;;21.00;86.66;99752.59;1818740;78;21521;-75
2022/08/12 00:54:49;;;;;;;5.28;4.33;;;;;;;21.00;86.70;99755.27;1790147;80;20983;-75
2022/08/12 00:57:27;;;;;;;8.45;4.75;;;;;;;20.98;86.78;99755.88;1816335;78;21119;-75
2022/08/12 00:59:57;;;;;;;7.10;4.90;;;;;;;20.96;86.79;99757.78;1815884;79;21061;-75
2022/08/12 01:02:32;;;;;;;8.60;4.50;;;;;;;20.96;86.83;99753.77;1815420;78;20979;-75
2022/08/12 01:13:28;;;;;;;7.12;4.75;;;;;;;20.91;87.03;99775.99;1815431;79;21030;-74
2022/08/12 01:15:58;;;;;;;7.37;4.58;;;;;;;20.90;87.12;99775.15;1792754;80;21560;-75
2022/08/12 01:18:28;;;;;;;5.00;4.60;;;;;;;20.87;87.16;99779.37;1815473;78;21527;-75
2022/08/12 01:21:20;;;;;;;10.08;5.25;;;;;;;20.88;87.13;99777.55;1815830;78;21069;-74
2022/08/12 01:24:38;;;;;;;6.65;4.87;;;;;;;20.88;87.22;99790.92;1790640;80;21948;-75
2022/08/12 01:27:05;;;;;;;5.28;4.78;;;;;;;20.86;87.37;99782.16;1815438;79;21026;-75
2022/08/12 01:29:35;;;;;;;5.33;4.75;;;;;;;20.85;87.37;99769.78;1760644;79;21106;-74
2022/08/12 01:32:07;;;;;;;5.97;5.45;;;;;;;20.84;87.42;99773.41;1815775;79;20948;-75
2022/08/12 01:34:37;;;;;;;8.38;4.55;;;;;;;20.84;87.47;99770.73;1779349;80;21055;-74
2022/08/12 01:37:06;;;;;;;6.55;5.22;;;;;;;20.83;87.57;99772.56;1760812;80;21115;-75
2022/08/12 01:39:45;;;;;;;5.08;4.58;;;;;;;20.81;87.70;99781.65;1802455;79;21605;-74
2022/08/12 01:42:11;;;;;;;5.20;4.75;;;;;;;20.80;87.77;99779.47;1802766;79;21051;-75
2022/08/12 01:44:38;;;;;;;4.87;4.47;;;;;;;20.77;87.81;99775.19;1802418;79;21304;-75
2022/08/12 01:47:38;;;;;;;5.90;4.67;;;;;;;20.77;87.81;99771.17;1802356;79;21023;-76
2022/08/12 01:50:32;;;;;;;7.65;4.80;;;;;;;20.78;87.70;99762.20;1804575;78;21831;-75
2022/08/12 01:53:09;;;;;;;8.45;4.65;;;;;;;20.81;87.50;99769.12;1818183;78;21020;-75
2022/08/12 01:55:35;;;;;;;;;;;;;;;20.82;87.46;99772.67;1821022;78;21099;-74
2022/08/12 02:01:23;;;;;;;5.20;4.70;;;;;;;20.81;87.44;99764.27;1815293;79;21095;-75
2022/08/12 02:13:44;;;;;;;7.28;4.65;;;;;;;20.70;87.50;99759.22;1788027;80;21097;-73
2022/08/12 02:16:56;;;;;;;9.23;4.55;;;;;;;20.66;87.63;99761.77;1812936;79;20979;-75
2022/08/12 02:20:14;;;;;;;6.53;4.60;;;;;;;20.64;87.68;99762.34;1779959;80;21814;-75
2022/08/12 02:22:43;;;;;;;8.98;4.95;;;;;;;20.62;87.73;99762.91;1782524;80;21044;-74
2022/08/12 02:25:15;;;;;;;9.90;4.70;;;;;;;20.63;87.69;99757.97;1783380;80;21564;-74
2022/08/12 02:27:48;;;;;;;9.88;4.60;;;;;;;20.61;87.71;99757.20;1783070;80;21103;-74
2022/08/12 02:30:21;;;;;;;5.15;4.50;;;;;;;20.62;87.71;99761.56;1781568;80;21095;-75
2022/08/12 02:32:50;;;;;;;5.25;4.67;;;;;;;20.61;87.60;99762.55;1782921;80;21098;-75
2022/08/12 02:35:23;;;;;;;8.53;4.60;;;;;;;20.61;87.60;99754.53;1783035;80;20980;-75
2022/08/12 02:37:53;;;;;;;7.08;4.75;;;;;;;20.60;87.60;99752.31;1782955;80;21139;-75
2022/08/12 02:40:20;;;;;;;8.05;4.87;;;;;;;20.60;87.50;99746.12;1783272;80;21484;-75
2022/08/12 02:42:59;;;;;;;6.53;5.00;;;;;;;20.56;87.61;99757.53;1782806;80;21574;-75
2022/08/12 02:45:44;;;;;;;5.33;4.83;;;;;;;20.57;87.63;99762.38;1782737;80;21221;-75
2022/08/12 02:48:18;;;;;;;5.03;4.62;;;;;;;20.56;87.61;99749.97;1782102;80;21045;-75
2022/08/12 02:50:48;;;;;;;;;;;;;;;20.55;87.59;99754.97;1785264;80;21575;-75
2022/08/12 02:53:16;;;;;;;5.90;4.50;;;;;;;20.54;87.57;99757.25;1761780;80;20125;-75
2022/08/12 02:55:44;;;;;;;6.58;4.87;;;;;;;20.53;87.60;99754.23;1782872;80;21127;-75
2022/08/12 02:58:10;;;;;;;8.08;4.50;;;;;;;20.52;87.68;99748.01;1782931;80;21595;-75
2022/08/12 03:00:38;;;;;;;6.33;4.85;;;;;;;20.52;87.72;99751.17;1782830;80;21099;-75
2022/08/12 03:03:11;;;;;;;4.92;4.53;;;;;;;20.52;87.81;99756.52;1783231;80;21491;-75
2022/08/12 03:05:48;;;;;;;5.05;4.45;;;;;;;20.51;87.86;99754.80;1782569;80;21075;-75
2022/08/12 03:08:18;;;;;;;6.47;4.55;;;;;;;20.52;87.87;99745.33;1751359;80;20981;-75
2022/08/12 03:10:45;;;;;;;6.50;4.72;;;;;;;20.51;87.86;99748.99;1782846;80;21148;-75
2022/08/12 03:13:12;;;;;;;5.10;4.67;;;;;;;20.51;87.83;99739.64;1782885;80;20993;-76
2022/08/12 03:15:39;;;;;;;6.42;5.05;;;;;;;20.52;87.85;99737.81;1782835;80;21061;-75
2022/08/12 03:18:22;;;;;;;5.28;4.78;;;;;;;20.53;87.84;99746.20;1783354;80;21063;-76
2022/08/12 03:20:49;;;;;;;7.95;4.95;;;;;;;20.54;87.94;99738.54;1775135;80;21025;-76
2022/08/12 03:23:15;;;;;;;6.75;5.00;;;;;;;20.53;87.95;99744.88;1782821;80;21116;-75
2022/08/12 03:25:43;;;;;;;11.90;5.22;;;;;;;20.52;87.94;99744.48;1783216;80;21108;-76
2022/08/12 03:28:12;;;;;;;7.65;4.87;;;;;;;20.54;87.90;99742.55;1782737;80;21017;-75
2022/08/12 03:30:42;;;;;;;7.75;5.30;;;;;;;20.56;87.87;99739.28;1776419;80;21155;-76
2022/08/12 03:33:08;;;;;;;6.47;4.83;;;;;;;20.55;87.78;99733.58;1783212;79;21060;-76
2022/08/12 03:35:36;;;;;;;6.25;4.85;;;;;;;20.54;87.76;99731.86;1782931;80;21249;-75
2022/08/12 03:38:05;;;;;;;5.78;4.72;;;;;;;20.55;87.81;99738.44;1783093;80;22068;-76
2022/08/12 04:00:23;;;;;;;7.85;4.50;;;;;;;20.63;87.67;99769.12;1769702;81;21076;-75
2022/08/12 04:03:00;;;;;;;5.12;4.70;;;;;;;20.64;87.62;99777.53;1769591;81;21082;-76
2022/08/12 04:05:24;;;;;;;11.15;5.03;;;;;;;20.63;87.76;99767.79;1769182;80;21042;-76
2022/08/12 04:07:52;;;;;;;6.17;5.30;;;;;;;20.62;87.80;99762.91;1769707;80;20988;-75
2022/08/12 04:10:18;;;;;;;5.70;4.70;;;;;;;20.62;87.75;99766.91;1769755;80;21078;-76
2022/08/12 04:13:15;;;;;;;6.60;4.85;;;;;;;20.66;87.76;99767.57;1770079;81;21058;-75
2022/08/12 04:15:44;;;;;;;5.50;4.92;;;;;;;20.66;87.65;99763.10;1769576;81;21238;-76
2022/08/12 04:18:17;;;;;;;7.17;5.10;;;;;;;20.66;87.53;99771.13;1769864;81;22102;-75
2022/08/12 04:20:46;;;;;;;5.62;4.58;;;;;;;20.68;87.46;99769.19;1769686;80;20992;-75
2022/08/12 04:23:15;;;;;;;6.15;5.00;;;;;;;20.69;87.31;99769.53;1770157;80;21074;-75
2022/08/12 04:25:42;;;;;;;6.00;4.97;;;;;;;20.72;87.25;99767.14;1769600;81;20991;-75
2022/08/12 04:28:10;;;;;;;7.53;4.85;;;;;;;20.72;87.14;99759.96;1769986;81;21095;-76
2022/08/12 04:30:36;;;;;;;7.45;5.25;;;;;;;20.73;87.09;99761.67;1769616;80;21019;-76
2022/08/12 04:33:03;;;;;;;5.78;4.97;;;;;;;20.72;87.07;99758.63;1769875;80;21141;-75
2022/08/12 04:35:30;;;;;;;10.23;5.22;;;;;;;20.72;86.95;99763.13;1750273;81;21117;-75
2022/08/12 04:37:57;;;;;;;6.67;5.15;;;;;;;20.72;86.87;99754.61;1769600;81;21011;-75
2022/08/12 04:40:25;;;;;;;7.58;5.47;;;;;;;20.71;86.91;99756.94;1769401;81;21206;-75
2022/08/12 04:42:52;;;;;;;6.60;4.50;;;;;;;20.71;86.97;99762.28;1769652;81;21030;-76
2022/08/12 04:45:19;;;;;;;9.93;4.95;;;;;;;20.76;86.99;99758.78;1769858;80;21108;-75
2022/08/12 04:47:46;;;;;;;7.33;4.55;;;;;;;20.78;87.04;99770.22;1769683;81;21043;-75
2022/08/12 04:50:15;;;;;;;5.72;5.22;;;;;;;20.82;87.19;99768.66;1769802;81;21046;-75
2022/08/12 04:52:42;;;;;;;7.58;5.83;;;;;;;20.86;87.27;99774.14;1769512;80;21120;-76
2022/08/12 04:55:11;;;;;;;6.85;5.20;;;;;;;20.91;87.26;99774.66;1769884;80;21026;-75
2022/08/12 04:57:38;;;;;;;7.40;5.70;;;;;;;20.96;87.18;99764.47;1769441;80;20979;-75
2022/08/12 05:00:13;;;;;;;8.65;4.85;;;;;;;20.97;87.04;99758.16;1769448;81;21079;-75
2022/08/12 05:02:40;;;;;;;7.85;5.20;;;;;;;20.97;86.76;99761.69;1769946;81;21137;-76
2022/08/12 05:05:07;;;;;;;7.80;5.00;;;;;;;21.01;86.59;99759.63;1769501;81;21154;-76
2022/08/12 05:07:34;;;;;;;5.65;5.15;;;;;;;21.05;86.52;99757.11;1769653;80;21061;-76
2022/08/12 05:10:02;;;;;;;6.67;5.28;;;;;;;21.09;86.39;99753.23;1769787;81;21125;-76
2022/08/12 05:12:36;;;;;;;6.62;5.40;;;;;;;21.15;86.35;99748.77;1769497;80;21041;-75
2022/08/12 05:15:04;;;;;;;9.95;5.50;;;;;;;21.22;86.17;99744.30;1769902;81;21055;-77
2022/08/12 05:17:31;;;;;;;5.28;4.80;;;;;;;21.29;85.98;99750.39;1769500;80;21846;-75
2022/08/12 05:19:58;;;;;;;9.00;5.47;;;;;;;21.35;85.85;99753.11;1769722;81;20984;-75
2022/08/12 05:22:28;;;;;;;7.15;5.65;;;;;;;21.42;85.49;99755.69;1769548;80;20979;-75
2022/08/12 05:24:55;;;;;;;10.88;5.40;;;;;;;21.48;85.28;99748.53;1769777;81;20991;-75
2022/08/12 05:27:21;;;;;;;6.87;5.17;;;;;;;21.52;84.91;99739.31;1766441;80;21127;-75
2022/08/12 05:29:48;;;;;;;5.55;5.05;;;;;;;21.59;84.60;99746.39;1777760;80;21974;-75
2022/08/12 05:32:19;;;;;;;8.15;5.45;;;;;;;21.64;84.48;99738.02;1777082;80;21555;-75
2022/08/12 05:34:44;;;;;;;6.15;5.65;;;;;;;21.72;84.73;99746.31;1777070;77;21008;-75
2022/08/12 05:37:11;;;;;;;8.78;4.90;;;;;;;21.81;83.97;99750.94;1777346;80;20993;-76
2022/08/12 05:39:37;;;;;;;8.38;5.35;;;;;;;21.88;83.51;99752.16;1777467;79;21088;-75
2022/08/12 05:42:04;;;;;;;7.37;5.37;;;;;;;21.97;82.89;99756.43;1776016;80;21535;-76
2022/08/12 05:44:31;;;;;;;7.22;5.17;;;;;;;22.02;82.69;99750.22;1777189;80;21602;-76
2022/08/12 05:46:57;;;;;;;8.88;5.50;;;;;;;22.04;82.64;99738.89;1777222;80;21080;-75
2022/08/12 05:49:24;;;;;;;9.53;5.65;;;;;;;22.08;82.33;99741.21;1777337;80;20992;-75
2022/08/12 05:51:50;;;;;;;7.75;5.60;;;;;;;22.14;81.84;99751.95;1777456;80;21060;-75
2022/08/12 05:54:17;;;;;;;7.10;5.75;;;;;;;22.17;81.69;99757.05;1777442;80;21111;-75
2022/08/12 05:56:44;;;;;;;6.53;5.80;;;;;;;22.20;81.36;99750.60;1777105;80;21002;-76
2022/08/12 05:59:11;;;;;;;8.55;6.40;;;;;;;22.22;81.22;99741.45;1782229;80;21063;-76
2022/08/12 06:01:38;;;;;;;8.90;5.85;;;;;;;22.24;80.61;99748.03;1782633;80;21048;-75
2022/08/12 06:04:05;;;;;;;7.22;5.50;;;;;;;22.21;80.79;99753.66;1783033;80;21410;-76
2022/08/12 06:06:37;;;;;;;7.92;5.90;;;;;;;22.23;80.88;99760.59;1782769;80;21143;-76
2022/08/12 06:09:00;;;;;;;8.30;5.78;;;;;;;22.26;80.76;99761.69;1782221;80;21032;-76
2022/08/12 06:11:26;;;;;;;8.10;6.15;;;;;;;22.30;80.73;99762.33;1782905;80;21012;-76
2022/08/12 06:13:54;;;;;;;10.85;5.55;;;;;;;22.36;80.91;99767.20;1783073;80;21083;-75
2022/08/12 06:16:21;;;;;;;6.15;5.53;;;;;;;22.45;80.96;99766.45;1782909;80;21028;-76
2022/08/12 06:18:48;;;;;;;9.50;5.87;;;;;;;22.51;80.79;99765.13;1782755;80;21602;-75
2022/08/12 06:21:17;;;;;;;6.00;5.40;;;;;;;22.57;80.80;99776.68;1782862;80;21049;-76
2022/08/12 06:23:44;;;;;;;7.08;6.17;;;;;;;22.59;79.84;99782.80;1782729;80;21044;-76
2022/08/12 06:26:11;;;;;;;7.22;5.80;;;;;;;22.60;79.40;99771.08;1783047;80;21343;-75
2022/08/12 06:28:38;;;;;;;9.18;5.35;;;;;;;22.57;79.31;99782.05;1782589;80;20990;-76
2022/08/12 06:31:08;;;;;;;8.53;5.65;;;;;;;22.56;79.29;99784.84;1783170;80;21127;-75
2022/08/12 06:33:35;;;;;;;10.70;6.22;;;;;;;22.54;79.54;99761.33;1782379;80;21044;-76
2022/08/12 06:36:03;;;;;;;10.20;5.62;;;;;;;22.52;79.89;99746.70;1782984;80;20945;-76
2022/08/12 06:38:31;;;;;;;13.18;5.60;;;;;;;22.53;79.97;99765.85;1782467;80;21005;-76
2022/08/12 06:43:45;;;;;;;7.12;5.78;;;;;;;22.57;79.80;99758.41;1782694;80;21144;-76
2022/08/12 06:46:12;;;;;;;7.12;6.50;;;;;;;22.61;80.15;99760.72;1782592;80;21092;-76
2022/08/12 06:48:42;;;;;;;6.65;5.97;;;;;;;22.66;79.92;99752.78;1782822;80;21586;-76
2022/08/12 06:51:10;;;;;;;8.53;6.28;;;;;;;22.69;79.87;99763.27;1782971;80;21122;-75
2022/08/12 06:53:37;;;;;;;6.33;5.75;;;;;;;22.74;79.70;99760.56;1782687;80;20977;-76
2022/08/12 06:56:05;;;;;;;8.45;6.12;;;;;;;22.78;79.80;99765.21;1782591;80;21788;-76
2022/08/12 06:58:32;;;;;;;6.28;5.67;;;;;;;22.85;79.81;99754.33;1782558;80;21005;-76
2022/08/12 07:00:58;;;;;;;9.35;6.05;;;;;;;22.89;79.18;99765.16;1782901;80;21064;-76
2022/08/12 07:03:28;;;;;;;7.17;6.30;;;;;;;22.93;79.23;99757.23;1782851;80;21059;-75
2022/08/12 07:05:59;;;;;;;9.93;6.33;;;;;;;22.97;79.00;99754.66;1782706;80;21078;-76
2022/08/12 07:08:31;;;;;;;9.70;6.30;;;;;;;22.99;78.55;99750.00;1782358;80;21090;-76
2022/08/12 07:11:00;;;;;;;9.98;6.70;;;;;;;23.00;78.25;99752.22;1783098;80;21067;-76
2022/08/12 07:13:43;;;;;;;7.50;6.08;;;;;;;22.99;78.14;99747.82;1782824;80;21072;-75
2022/08/12 07:16:12;;;;;;;9.45;6.92;;;;;;;23.02;78.40;99753.44;1783113;80;21158;-75
2022/08/12 07:18:41;;;;;;;7.58;6.03;;;;;;;23.07;78.44;99748.57;1782958;80;21930;-75
2022/08/12 07:21:07;;;;;;;6.58;5.90;;;;;;;23.06;78.12;99746.82;1777545;80;21163;-75
2022/08/12 07:23:36;;;;;;;8.40;6.17;;;;;;;23.07;78.05;99749.91;1782643;79;20997;-75
2022/08/12 07:26:05;;;;;;;7.50;6.70;;;;;;;23.02;77.96;99745.39;1782728;80;21013;-75
2022/08/12 07:28:34;;;;;;;7.33;6.37;;;;;;;23.03;78.06;99739.02;1782715;80;21122;-75
2022/08/12 07:31:07;;;;;;;7.37;6.67;;;;;;;23.05;77.98;99737.05;1782683;79;20977;-76
2022/08/12 07:33:38;;;;;;;12.68;6.75;;;;;;;23.10;77.85;99738.89;1783120;80;21122;-75
2022/08/12 07:36:09;;;;;;;9.53;6.70;;;;;;;23.12;77.83;99738.30;1782711;80;20981;-76
2022/08/12 07:38:45;;;;;;;6.92;6.35;;;;;;;23.10;78.06;99742.92;1783311;80;21075;-74
2022/08/12 07:41:19;;;;;;;7.78;7.08;;;;;;;23.13;77.98;99739.98;1782887;80;21115;-76
2022/08/12 07:43:52;;;;;;;;;;;;;;;23.17;77.65;99740.11;1782699;80;21052;-75
2022/08/12 07:46:24;;;;;;;8.20;6.53;;;;;;;23.21;77.61;99736.17;1779829;80;21826;-76
2022/08/12 07:48:54;;;;;;;8.93;6.17;;;;;;;23.27;77.45;99737.01;1783019;80;21079;-75
2022/08/12 07:51:22;;;;;;;8.68;6.45;;;;;;;23.31;77.25;99727.70;1783002;80;21032;-76
2022/08/12 07:53:48;;;;;;;12.70;7.28;;;;;;;23.41;77.44;99725.59;1782702;80;21067;-75
2022/08/12 07:56:16;;;;;;;10.32;6.60;;;;;;;23.52;77.65;99725.04;1783041;80;21134;-75
2022/08/12 07:58:43;;;;;;;9.75;6.12;;;;;;;23.65;77.15;99718.10;1782841;80;21476;-76
2022/08/12 08:01:14;;;;;;;7.40;6.55;;;;;;;23.84;77.46;99717.89;1782766;80;21041;-76
2022/08/12 08:04:54;;;;;;;8.60;6.05;;;;;;;23.95;76.44;99705.72;1783140;80;21040;-76
2022/08/12 08:06:11;;;;;;;14.75;7.20;;;;;;;24.06;76.71;99716.38;1777846;80;21048;-75
2022/08/12 08:08:40;;;;;;;7.58;6.78;;;;;;;24.15;76.31;99707.99;1783238;80;21523;-76
2022/08/12 08:13:51;;;;;;;;;;;;;;;24.32;75.57;99707.00;1785601;80;21655;-76
2022/08/12 08:16:18;;;;;;;7.90;7.10;;;;;;;24.39;74.80;99716.21;1782839;80;20250;-75
2022/08/12 08:18:44;;;;;;;9.25;6.53;;;;;;;24.39;73.65;99717.05;1783179;80;21051;-75
2022/08/12 08:21:10;;;;;;;12.30;6.80;;;;;;;24.38;73.22;99719.91;1782846;80;21051;-75
2022/08/12 08:26:23;;;;;;;7.90;7.17;;;;;;;24.39;73.66;99722.43;1783228;80;21087;-75
2022/08/12 08:28:50;;;;;;;9.35;6.50;;;;;;;24.44;73.77;99727.41;1782714;80;21040;-76
2022/08/12 08:31:17;;;;;;;8.85;7.10;;;;;;;24.48;73.79;99724.31;1783275;80;21056;-76
2022/08/12 08:33:43;;;;;;;12.28;7.12;;;;;;;24.56;73.88;99722.80;1782627;80;21040;-75
2022/08/12 08:36:10;;;;;;;16.97;8.13;;;;;;;24.57;73.77;99721.31;1782938;80;21139;-76
2022/08/12 08:38:39;;;;;;;10.63;7.33;;;;;;;24.56;73.78;99721.45;1782639;80;21405;-75
2022/08/12 08:43:54;;;;;;;9.65;6.62;;;;;;;24.68;73.72;99709.60;1782747;80;21535;-76
2022/08/12 08:46:19;;;;;;;9.00;6.95;;;;;;;24.81;73.05;99710.19;1782757;80;21005;-76
2022/08/12 08:48:46;;;;;;;11.63;6.75;;;;;;;24.91;72.25;99704.79;1782800;80;21143;-74
2022/08/12 08:51:12;;;;;;;13.62;7.40;;;;;;;24.99;72.02;99702.75;1782811;80;20996;-76
2022/08/12 08:53:40;;;;;;;9.03;6.28;;;;;;;25.09;72.23;99706.30;1782867;80;21143;-75
2022/08/12 08:56:09;;;;;;;8.83;6.17;;;;;;;25.20;72.29;99696.73;1782825;80;21115;-76
2022/08/12 08:58:36;;;;;;;10.43;6.83;;;;;;;25.38;72.67;99703.59;1782748;80;21139;-76
2022/08/12 09:01:04;;;;;;;11.88;7.17;;;;;;;25.55;70.52;99700.69;1782805;80;22084;-74
2022/08/12 09:03:34;;;;;;;14.65;6.83;;;;;;;25.69;69.83;99710.66;1782711;80;21485;-75
2022/08/12 09:06:01;;;;;;;11.12;6.30;;;;;;;25.83;70.25;99710.69;1783164;80;21059;-75
2022/08/12 09:08:28;;;;;;;7.58;6.70;;;;;;;25.97;68.96;99721.52;1782767;80;20988;-76
2022/08/12 09:13:26;;;;;;;7.67;6.42;;;;;;;26.07;67.81;99723.67;1783172;80;22107;-74
2022/08/12 09:13:33;;;;;;;7.00;6.28;;;;;;;26.09;68.02;99731.11;1779507;80;21156;-75
2022/08/12 09:15:57;;;;;;;8.00;6.60;;;;;;;26.17;67.52;99742.01;1782411;80;21064;-75
2022/08/12 09:18:25;;;;;;;11.78;7.35;;;;;;;26.27;67.53;99740.11;1782831;80;20984;-75
2022/08/12 09:20:51;;;;;;;11.12;7.42;;;;;;;26.41;67.26;99741.97;1782843;80;21044;-75
2022/08/12 09:23:18;;;;;;;11.78;6.53;;;;;;;26.52;66.74;99737.73;1777284;80;21107;-74
2022/08/12 09:25:47;;;;;;;9.90;6.60;;;;;;;26.59;65.47;99740.16;1782705;79;21686;-75
2022/08/12 09:28:15;;;;;;;14.00;6.40;;;;;;;26.65;64.98;99738.25;1782868;80;20993;-75
2022/08/12 09:30:45;;;;;;;22.55;7.15;;;;;;;26.73;65.68;99742.03;1782345;80;21025;-75
2022/08/12 09:33:12;;;;;;;7.30;6.47;;;;;;;26.78;64.85;99749.17;1782952;80;20982;-74
2022/08/12 09:35:43;;;;;;;12.65;7.12;;;;;;;26.84;64.72;99756.17;1782970;80;21040;-75
2022/08/12 09:38:07;;;;;;;9.88;6.42;;;;;;;26.94;64.62;99756.11;1782453;80;21087;-74
2022/08/12 09:40:35;;;;;;;10.93;6.97;;;;;;;27.05;65.18;99753.70;1783320;80;21115;-75
2022/08/12 09:45:48;;;;;;;;;;;;;;;27.23;62.89;99746.92;1785765;80;21029;-75
2022/08/12 09:48:16;;;;;;;9.93;7.53;;;;;;;27.18;62.35;99752.78;1814937;79;20201;-75
2022/08/12 09:50:50;;;;;;;9.55;7.05;;;;;;;27.13;62.26;99755.61;1813587;78;21132;-75
2022/08/12 09:53:23;;;;;;;7.92;6.92;;;;;;;27.06;62.40;99760.27;1779393;79;21030;-75
2022/08/12 09:55:53;;;;;;;8.55;6.37;;;;;;;26.99;62.43;99758.36;1783018;80;21468;-76
2022/08/12 09:58:30;;;;;;;17.48;11.15;;;;;;;26.91;62.42;99762.32;1782672;80;21197;-74
2022/08/12 10:01:00;;;;;;;19.85;12.03;;;;;;;26.84;63.04;99756.68;1782519;80;21099;-75
2022/08/12 10:03:26;;;;;;;18.30;11.40;;;;;;;26.82;63.70;99754.64;1782794;80;21829;-74
2022/08/12 10:05:53;;;;;;;11.18;7.62;;;;;;;26.79;63.98;99754.94;1782885;80;21024;-75
2022/08/12 10:08:20;;;;;;;16.05;7.60;;;;;;;26.76;63.80;99752.53;1782762;80;20989;-75
2022/08/12 10:13:41;;;;;;;12.35;6.80;;;;;;;26.64;64.34;99766.23;1782936;80;21075;-75
2022/08/12 10:16:21;;;;;;;10.60;6.65;;;;;;;26.59;64.11;99771.20;1782926;80;21221;-74
2022/08/12 10:18:56;;;;;;;8.08;7.15;;;;;;;26.53;64.47;99771.82;1782982;80;21594;-74
2022/08/12 10:21:35;;;;;;;17.12;8.60;;;;;;;26.44;65.05;99762.75;1782744;80;21468;-74
2022/08/12 10:23:58;;;;;;;7.90;7.20;;;;;;;26.33;65.96;99766.50;1781504;80;21139;-75
2022/08/12 10:31:55;;;;;;;9.28;6.95;;;;;;;26.03;67.24;99773.00;1782521;80;21083;-74
2022/08/12 10:34:23;;;;;;;8.38;7.03;;;;;;;25.90;67.56;99775.13;1783114;80;21142;-74
2022/08/12 10:36:54;;;;;;;10.45;6.83;;;;;;;25.79;67.82;99770.77;1782873;80;21029;-75
2022/08/12 10:39:22;;;;;;;8.43;7.17;;;;;;;25.67;68.24;99774.13;1782989;80;21083;-74
2022/08/12 10:44:35;;;;;;;;;;;;;;;25.59;69.48;99781.57;1785746;80;21004;-75
2022/08/12 10:47:03;;;;;;;10.45;6.83;;;;;;;25.62;69.81;99772.84;1783280;80;20446;-74
2022/08/12 10:49:36;;;;;;;7.83;6.80;;;;;;;25.58;69.68;99779.86;1782890;80;21041;-74
2022/08/12 10:52:06;;;;;;;7.92;7.15;;;;;;;25.54;69.44;99775.77;1782724;80;21063;-75
2022/08/12 10:54:33;;;;;;;10.68;6.97;;;;;;;25.52;69.21;99776.88;1783066;80;21254;-74
2022/08/12 10:56:59;;;;;;;8.90;7.40;;;;;;;25.50;69.22;99781.09;1760777;80;20985;-76
2022/08/12 10:59:28;;;;;;;12.68;7.35;;;;;;;25.44;68.75;99783.00;1783105;80;21009;-79
2022/08/12 11:01:57;;;;;;;10.78;7.37;;;;;;;25.39;69.12;99782.08;1782832;80;21102;-81
2022/08/12 11:04:28;;;;;;;8.65;7.12;;;;;;;25.40;69.75;99780.22;1727634;81;21040;-82
2022/08/12 11:06:55;;;;;;;15.95;6.90;;;;;;;25.45;69.70;99783.34;1727359;83;21122;-80
2022/08/12 11:09:29;;;;;;;13.28;7.00;;;;;;;25.46;69.43;99779.66;1727493;83;20949;-86
2022/08/12 11:11:58;;;;;;;8.75;7.47;;;;;;;25.47;69.47;99776.46;1727598;82;21051;-80
2022/08/12 11:14:30;;;;;;;12.37;7.58;;;;;;;25.48;69.31;99779.02;1726873;83;21101;-79
2022/08/12 11:16:57;;;;;;;10.03;7.60;;;;;;;25.51;69.55;99776.05;1727298;83;21055;-77
2022/08/12 11:19:24;;;;;;;9.83;7.67;;;;;;;25.51;69.67;99770.66;1727379;83;21194;-81
2022/08/12 11:21:51;;;;;;;12.25;6.97;;;;;;;25.53;69.41;99757.88;1723293;83;21031;-80
2022/08/12 11:24:18;;;;;;;13.75;7.83;;;;;;;25.52;69.27;99750.81;1727492;83;21022;-80
2022/08/12 11:26:45;;;;;;;15.90;7.47;;;;;;;25.50;69.15;99743.86;1727275;83;21592;-81
2022/08/12 11:29:12;;;;;;;11.35;7.65;;;;;;;25.48;69.25;99740.46;1727259;83;21533;-80
2022/08/12 11:31:38;;;;;;;8.23;7.22;;;;;;;25.47;69.19;99738.27;1727979;83;21363;-80
2022/08/12 11:34:05;;;;;;;9.03;6.85;;;;;;;25.46;68.95;99735.22;1727176;83;21130;-80
2022/08/12 11:36:33;;;;;;;11.28;7.12;;;;;;;25.45;69.46;99738.89;1727511;83;21533;-80
2022/08/12 11:38:59;;;;;;;9.95;7.45;;;;;;;25.44;69.50;99737.72;1727376;83;21070;-80
2022/08/12 11:41:26;;;;;;;8.98;7.47;;;;;;;25.41;69.44;99750.95;1727410;83;21061;-80
2022/08/12 11:43:52;;;;;;;12.68;7.28;;;;;;;25.37;69.49;99750.91;1727618;83;21150;-81
2022/08/12 11:46:19;;;;;;;10.48;7.90;;;;;;;25.32;69.57;99759.41;1727345;83;20984;-80
2022/08/12 11:48:45;;;;;;;17.77;7.67;;;;;;;25.30;69.75;99756.01;1727311;83;21149;-81
2022/08/12 11:51:12;;;;;;;7.62;6.58;;;;;;;25.30;69.71;99757.83;1727033;82;21071;-81
2022/08/12 11:53:39;;;;;;;10.20;7.37;;;;;;;25.29;69.36;99763.72;1724225;83;21030;-80
2022/08/12 11:56:06;;;;;;;8.60;6.97;;;;;;;25.27;69.33;99756.76;1727349;83;21881;-80
2022/08/12 11:58:33;;;;;;;9.98;6.92;;;;;;;25.26;69.42;99756.39;1727256;83;21091;-80
2022/08/12 12:01:00;;;;;;;10.63;7.17;;;;;;;25.24;69.54;99755.69;1743345;81;21119;-80
2022/08/12 12:03:26;;;;;;;17.50;8.03;;;;;;;25.20;69.95;99761.83;1747083;80;21151;-80
2022/08/12 12:05:53;;;;;;;10.70;7.45;;;;;;;25.20;69.85;99765.39;1747612;82;21061;-84
2022/08/12 12:08:22;;;;;;;14.30;7.40;;;;;;;25.20;69.75;99775.30;1747033;80;21368;-78
2022/08/12 12:10:49;;;;;;;14.40;7.60;;;;;;;25.17;69.74;99776.44;1746385;81;21013;-78
2022/08/12 12:13:17;;;;;;;15.35;7.95;;;;;;;25.13;69.56;99755.31;1747157;82;21598;-80
2022/08/12 12:15:44;;;;;;;14.65;7.33;;;;;;;25.10;69.66;99767.23;1747294;82;21690;-80
2022/08/12 12:18:29;;;;;;;10.95;7.58;;;;;;;25.09;69.65;99769.56;1747516;82;21555;-80
2022/08/12 12:21:00;;;;;;;12.68;8.10;;;;;;;25.08;69.62;99761.11;1747099;82;22223;-82
2022/08/12 12:23:27;;;;;;;10.50;7.58;;;;;;;25.07;69.69;99760.78;1739806;80;21108;-81
2022/08/12 12:25:55;;;;;;;14.20;7.70;;;;;;;25.02;69.94;99759.00;1799576;79;20992;-78
2022/08/12 12:28:21;;;;;;;10.35;8.00;;;;;;;25.00;70.46;99763.69;1802694;79;21032;-78
2022/08/12 12:30:48;;;;;;;20.05;8.15;;;;;;;25.00;70.43;99761.84;1806929;79;20981;-78
2022/08/12 12:33:14;;;;;;;12.65;7.97;;;;;;;25.03;70.52;99762.91;1807196;78;21514;-80
2022/08/12 12:35:41;;;;;;;13.13;7.90;;;;;;;25.06;70.44;99756.87;1806816;79;21109;-80
2022/08/12 12:38:10;;;;;;;13.98;8.70;;;;;;;25.09;70.65;99764.17;1806714;78;21059;-81
2022/08/12 12:40:38;;;;;;;9.98;7.70;;;;;;;25.12;70.75;99767.94;1807180;78;20980;-80
2022/08/12 12:43:04;;;;;;;16.10;7.55;;;;;;;25.16;70.72;99764.47;1807163;78;20972;-78
2022/08/12 12:45:33;;;;;;;12.37;7.72;;;;;;;25.18;70.36;99766.04;1806210;78;21096;-80
2022/08/12 12:48:08;;;;;;;8.43;7.03;;;;;;;25.21;70.45;99765.73;1805795;79;21066;-78
2022/08/12 12:50:41;;;;;;;12.20;7.28;;;;;;;25.27;70.21;99760.80;1805484;79;21550;-78
2022/08/12 12:53:08;;;;;;;13.25;7.58;;;;;;;25.30;70.05;99753.79;1802242;79;21515;-78
2022/08/12 12:55:36;;;;;;;12.95;7.60;;;;;;;25.33;69.95;99758.89;1805339;79;21566;-79
2022/08/12 12:58:08;;;;;;;11.35;7.90;;;;;;;25.40;69.54;99751.94;1805988;78;21695;-78
2022/08/12 13:00:34;;;;;;;11.30;7.70;;;;;;;25.45;69.46;99746.97;1813853;78;21035;-75
2022/08/12 13:03:00;;;;;;;12.45;7.58;;;;;;;25.52;69.46;99745.42;1786947;80;21055;-76
2022/08/12 13:05:31;;;;;;;10.20;7.83;;;;;;;25.56;69.21;99744.13;1820963;78;23091;-74
2022/08/12 13:07:59;;;;;;;10.00;7.75;;;;;;;25.62;69.41;99749.94;1824332;78;20967;-75
2022/08/12 13:10:26;;;;;;;10.88;7.40;;;;;;;25.66;69.57;99747.32;1786850;80;21513;-74
2022/08/12 13:12:53;;;;;;;9.18;7.22;;;;;;;25.71;68.91;99754.47;1820767;78;21604;-75
2022/08/12 13:15:20;;;;;;;10.95;7.55;;;;;;;25.77;68.64;99751.17;1818159;78;21550;-76
2022/08/12 13:17:50;;;;;;;11.80;6.80;;;;;;;25.85;68.16;99753.16;1763432;81;21080;-76
2022/08/12 13:20:17;;;;;;;11.15;7.30;;;;;;;25.97;68.00;99756.56;1799248;79;21040;-74
2022/08/12 13:22:45;;;;;;;10.85;6.97;;;;;;;26.09;67.71;99754.03;1798700;79;21154;-74
2022/08/12 13:25:13;;;;;;;10.98;7.03;;;;;;;26.18;68.19;99755.86;1824183;78;20982;-75
2022/08/12 13:27:46;;;;;;;10.25;7.20;;;;;;;26.27;67.85;99750.06;1767072;80;21005;-75
2022/08/12 13:30:22;;;;;;;9.55;6.80;;;;;;;26.36;67.51;99756.41;1764912;80;21079;-75
2022/08/12 13:32:53;;;;;;;12.63;7.53;;;;;;;26.42;67.25;99745.03;1798520;79;21517;-75